Lumsden, Canada
Current Conditions -  °F | °C
As of 5:00 AM on Friday 24 Oct 2014 (Local Time) from CYQR Reporting Station
Broken Clouds Broken Clouds  
Wind Chill: 45°   Ceiling: 12000
Heat Index: 48°   Visibility: 15mi
Dew Point: 41°   Wind: 8mph
Humidity: 76%   Direction: 190°S
Pressure: 29.66"   Gusts: NA
Location:  50.64°N, 104.87°W
Report Text: CYQR 241100Z 19007KT 15SM BKN120 09/05 A2966 RMK AC6 SLP057
Loading
Personal Weather Stations






























Interactive Weather Map New forecast layout! Learn more

10-Day Weather Forecast

Advertisements
Track Severe Weather on mobile